N930LA KHDC-KIYA
Flight info
| Callsign | N930LA |
|---|---|
| Flight time | 0h 29m |
| Altitude | 10500 |
| Route | / |
| Aircraft | TBM9/L-VGDW/C |
Departure
| Time | 2026-05-05 02:17 |
|---|---|
| Airport | Hammond Northshore Regional Airport (KHDC) |
Arrival
| Time | 2026-05-05 02:47 |
|---|---|
| Airport | Abbeville Chris Crusta Memorial Airport (KIYA) |
| Time | Latitude | Longitude | Altitude | Speed | Heading |
|---|---|---|---|---|---|
| 2026-05-05 02:12 | 30.51963 | -90.42106 | 46 ft | 0 kts | 271° |
| 2026-05-05 02:16 | 30.51964 | -90.42110 | 46 ft | 3 kts | 296° |
| 2026-05-05 02:16 | 30.51984 | -90.42070 | 46 ft | 14 kts | 85° |
| 2026-05-05 02:16 | 30.52003 | -90.41932 | 48 ft | 19 kts | 35° |
| 2026-05-05 02:17 | 30.52274 | -90.41917 | 47 ft | 70 kts | 358° |
| 2026-05-05 02:17 | 30.52946 | -90.41922 | 139 ft | 114 kts | 359° |
| 2026-05-05 02:17 | 30.53758 | -90.41963 | 588 ft | 128 kts | 357° |
| 2026-05-05 02:17 | 30.54632 | -90.42293 | 1006 ft | 134 kts | 308° |
| 2026-05-05 02:18 | 30.54821 | -90.43220 | 1598 ft | 118 kts | 251° |
| 2026-05-05 02:18 | 30.54624 | -90.44166 | 2102 ft | 121 kts | 249° |
| 2026-05-05 02:18 | 30.54367 | -90.45097 | 2672 ft | 123 kts | 246° |
| 2026-05-05 02:18 | 30.54064 | -90.46121 | 3061 ft | 141 kts | 249° |
| 2026-05-05 02:19 | 30.53758 | -90.47205 | 3656 ft | 142 kts | 250° |
| 2026-05-05 02:19 | 30.53452 | -90.48295 | 4257 ft | 144 kts | 250° |
| 2026-05-05 02:19 | 30.53135 | -90.49408 | 4868 ft | 145 kts | 251° |
| 2026-05-05 02:19 | 30.52820 | -90.50523 | 5448 ft | 146 kts | 252° |
| 2026-05-05 02:20 | 30.52503 | -90.51642 | 6050 ft | 146 kts | 254° |
| 2026-05-05 02:20 | 30.52186 | -90.52759 | 6659 ft | 144 kts | 255° |
| 2026-05-05 02:20 | 30.51876 | -90.53860 | 7221 ft | 145 kts | 256° |
| 2026-05-05 02:20 | 30.51561 | -90.54975 | 7766 ft | 146 kts | 257° |
| 2026-05-05 02:21 | 30.51247 | -90.56084 | 8327 ft | 146 kts | 258° |
| 2026-05-05 02:21 | 30.50931 | -90.57206 | 8891 ft | 146 kts | 259° |
| 2026-05-05 02:21 | 30.50614 | -90.58328 | 9463 ft | 146 kts | 259° |
| 2026-05-05 02:21 | 30.50297 | -90.59446 | 10023 ft | 147 kts | 260° |
| 2026-05-05 02:22 | 30.49977 | -90.60579 | 10469 ft | 154 kts | 260° |
| 2026-05-05 02:22 | 30.49623 | -90.61888 | 10495 ft | 184 kts | 259° |
| 2026-05-05 02:22 | 30.49211 | -90.63374 | 10505 ft | 206 kts | 258° |
| 2026-05-05 02:22 | 30.48744 | -90.65017 | 10499 ft | 221 kts | 258° |
| 2026-05-05 02:23 | 30.48246 | -90.66766 | 10504 ft | 231 kts | 257° |
| 2026-05-05 02:23 | 30.47738 | -90.68549 | 10502 ft | 237 kts | 257° |
| 2026-05-05 02:23 | 30.47216 | -90.70386 | 10494 ft | 240 kts | 257° |
| 2026-05-05 02:23 | 30.46693 | -90.72225 | 10494 ft | 242 kts | 257° |
| 2026-05-05 02:24 | 30.46163 | -90.74087 | 10493 ft | 244 kts | 257° |
| 2026-05-05 02:24 | 30.45632 | -90.75949 | 10491 ft | 245 kts | 257° |
| 2026-05-05 02:24 | 30.45096 | -90.77834 | 10485 ft | 245 kts | 257° |
| 2026-05-05 02:24 | 30.44557 | -90.79724 | 10488 ft | 246 kts | 257° |
| 2026-05-05 02:25 | 30.44024 | -90.81594 | 10487 ft | 246 kts | 257° |
| 2026-05-05 02:25 | 30.43488 | -90.83470 | 10481 ft | 246 kts | 257° |
| 2026-05-05 02:25 | 30.42948 | -90.85359 | 10481 ft | 246 kts | 257° |
| 2026-05-05 02:25 | 30.42411 | -90.87242 | 10492 ft | 246 kts | 257° |
| 2026-05-05 02:26 | 30.41874 | -90.89128 | 10486 ft | 247 kts | 257° |
| 2026-05-05 02:26 | 30.41333 | -90.91014 | 10488 ft | 247 kts | 257° |
| 2026-05-05 02:26 | 30.40792 | -90.92905 | 10488 ft | 247 kts | 257° |
| 2026-05-05 02:26 | 30.40249 | -90.94797 | 10479 ft | 248 kts | 257° |
| 2026-05-05 02:27 | 30.39707 | -90.96692 | 10491 ft | 247 kts | 257° |
| 2026-05-05 02:27 | 30.39165 | -90.98585 | 10488 ft | 248 kts | 257° |
| 2026-05-05 02:27 | 30.38629 | -91.00450 | 10492 ft | 248 kts | 257° |
| 2026-05-05 02:27 | 30.38085 | -91.02344 | 10487 ft | 248 kts | 257° |
| 2026-05-05 02:28 | 30.37542 | -91.04236 | 10489 ft | 248 kts | 257° |
| 2026-05-05 02:28 | 30.36999 | -91.06129 | 10492 ft | 248 kts | 256° |
| 2026-05-05 02:28 | 30.36453 | -91.08024 | 10490 ft | 248 kts | 256° |
| 2026-05-05 02:28 | 30.35908 | -91.09918 | 10488 ft | 248 kts | 256° |
| 2026-05-05 02:29 | 30.35363 | -91.11812 | 10484 ft | 248 kts | 256° |
| 2026-05-05 02:29 | 30.34817 | -91.13711 | 10490 ft | 248 kts | 256° |
| 2026-05-05 02:29 | 30.34269 | -91.15608 | 10489 ft | 248 kts | 256° |
| 2026-05-05 02:29 | 30.33728 | -91.17482 | 10483 ft | 248 kts | 256° |
| 2026-05-05 02:30 | 30.33183 | -91.19375 | 10489 ft | 248 kts | 256° |
| 2026-05-05 02:30 | 30.32637 | -91.21265 | 10489 ft | 248 kts | 256° |
| 2026-05-05 02:30 | 30.32092 | -91.23145 | 10491 ft | 248 kts | 256° |
| 2026-05-05 02:30 | 30.31400 | -91.24994 | 10487 ft | 251 kts | 246° |
| 2026-05-05 02:31 | 30.30546 | -91.26761 | 10484 ft | 251 kts | 245° |
| 2026-05-05 02:31 | 30.29647 | -91.28500 | 10491 ft | 252 kts | 243° |
| 2026-05-05 02:31 | 30.28722 | -91.30227 | 10488 ft | 252 kts | 243° |
| 2026-05-05 02:31 | 30.27804 | -91.31965 | 10484 ft | 252 kts | 244° |
| 2026-05-05 02:32 | 30.26893 | -91.33705 | 10489 ft | 252 kts | 244° |
| 2026-05-05 02:32 | 30.25992 | -91.35417 | 10483 ft | 252 kts | 243° |
| 2026-05-05 02:32 | 30.25078 | -91.37150 | 10487 ft | 252 kts | 243° |
| 2026-05-05 02:32 | 30.24166 | -91.38881 | 10483 ft | 252 kts | 243° |
| 2026-05-05 02:33 | 30.23254 | -91.40612 | 10484 ft | 252 kts | 243° |
| 2026-05-05 02:33 | 30.22337 | -91.42350 | 10480 ft | 252 kts | 243° |
| 2026-05-05 02:33 | 30.21425 | -91.44081 | 10489 ft | 252 kts | 243° |
| 2026-05-05 02:33 | 30.20511 | -91.45811 | 10480 ft | 252 kts | 243° |
| 2026-05-05 02:34 | 30.19598 | -91.47539 | 10488 ft | 252 kts | 243° |
| 2026-05-05 02:34 | 30.18684 | -91.49270 | 10490 ft | 252 kts | 243° |
| 2026-05-05 02:34 | 30.17769 | -91.51001 | 10482 ft | 252 kts | 243° |
| 2026-05-05 02:34 | 30.16868 | -91.52705 | 10484 ft | 252 kts | 243° |
| 2026-05-05 02:35 | 30.15951 | -91.54438 | 10490 ft | 252 kts | 243° |
| 2026-05-05 02:35 | 30.15038 | -91.56165 | 10476 ft | 253 kts | 243° |
| 2026-05-05 02:35 | 30.14114 | -91.57921 | 10258 ft | 260 kts | 243° |
| 2026-05-05 02:35 | 30.13161 | -91.59733 | 9936 ft | 267 kts | 243° |
| 2026-05-05 02:36 | 30.12187 | -91.61578 | 9558 ft | 270 kts | 242° |
| 2026-05-05 02:36 | 30.11200 | -91.63434 | 9196 ft | 272 kts | 242° |
| 2026-05-05 02:36 | 30.10207 | -91.65295 | 8836 ft | 272 kts | 242° |
| 2026-05-05 02:36 | 30.09217 | -91.67156 | 8474 ft | 272 kts | 242° |
| 2026-05-05 02:37 | 30.08231 | -91.69018 | 8121 ft | 272 kts | 241° |
| 2026-05-05 02:37 | 30.07243 | -91.70877 | 7760 ft | 271 kts | 241° |
| 2026-05-05 02:37 | 30.06256 | -91.72733 | 7393 ft | 271 kts | 241° |
| 2026-05-05 02:37 | 30.05274 | -91.74583 | 7040 ft | 270 kts | 241° |
| 2026-05-05 02:38 | 30.04622 | -91.75808 | 6809 ft | 270 kts | 240° |
| 2026-05-05 02:38 | 30.03642 | -91.77652 | 6455 ft | 269 kts | 240° |
| 2026-05-05 02:38 | 30.02664 | -91.79488 | 6086 ft | 268 kts | 240° |
| 2026-05-05 02:38 | 30.01374 | -91.81910 | 5611 ft | 266 kts | 240° |
| 2026-05-05 02:39 | 30.00406 | -91.83728 | 5260 ft | 265 kts | 240° |
| 2026-05-05 02:39 | 29.99756 | -91.84950 | 5025 ft | 264 kts | 239° |
| 2026-05-05 02:39 | 29.98793 | -91.86751 | 4669 ft | 263 kts | 239° |
| 2026-05-05 02:39 | 29.97856 | -91.88524 | 4322 ft | 261 kts | 239° |
| 2026-05-05 02:40 | 29.96583 | -91.90893 | 3860 ft | 258 kts | 238° |
| 2026-05-05 02:40 | 29.95963 | -91.92051 | 3636 ft | 257 kts | 238° |
| 2026-05-05 02:40 | 29.95064 | -91.93820 | 3304 ft | 255 kts | 243° |
| 2026-05-05 02:40 | 29.94554 | -91.95769 | 2955 ft | 256 kts | 262° |
| 2026-05-05 02:41 | 29.94791 | -91.97814 | 2590 ft | 262 kts | 285° |
| 2026-05-05 02:41 | 29.95610 | -91.99707 | 2230 ft | 266 kts | 298° |
| 2026-05-05 02:41 | 29.96463 | -92.01575 | 1835 ft | 260 kts | 286° |
| 2026-05-05 02:41 | 29.96839 | -92.03585 | 1447 ft | 254 kts | 278° |
| 2026-05-05 02:42 | 29.97228 | -92.05558 | 1068 ft | 250 kts | 280° |
| 2026-05-05 02:42 | 29.97470 | -92.07487 | 995 ft | 237 kts | 272° |
| 2026-05-05 02:42 | 29.97577 | -92.09355 | 988 ft | 223 kts | 270° |
| 2026-05-05 02:42 | 29.97673 | -92.10986 | 990 ft | 186 kts | 270° |
| 2026-05-05 02:43 | 29.97771 | -92.12351 | 988 ft | 156 kts | 270° |
| 2026-05-05 02:43 | 29.97812 | -92.13487 | 974 ft | 127 kts | 251° |
| 2026-05-05 02:43 | 29.97351 | -92.14224 | 984 ft | 111 kts | 220° |
| 2026-05-05 02:43 | 29.96642 | -92.14756 | 995 ft | 138 kts | 189° |
| 2026-05-05 02:44 | 29.95655 | -92.14426 | 1010 ft | 166 kts | 144° |
| 2026-05-05 02:44 | 29.95065 | -92.13227 | 1006 ft | 185 kts | 104° |
| 2026-05-05 02:44 | 29.95281 | -92.11718 | 1002 ft | 202 kts | 67° |
| 2026-05-05 02:44 | 29.96290 | -92.10562 | 987 ft | 211 kts | 30° |
| 2026-05-05 02:45 | 29.97720 | -92.10244 | 987 ft | 212 kts | 355° |
| 2026-05-05 02:45 | 29.99014 | -92.10638 | 999 ft | 173 kts | 340° |
| 2026-05-05 02:45 | 30.00074 | -92.10709 | 987 ft | 141 kts | 25° |
| 2026-05-05 02:45 | 30.00559 | -92.10027 | 988 ft | 96 kts | 97° |
| 2026-05-05 02:46 | 30.00209 | -92.09558 | 789 ft | 84 kts | 169° |
| 2026-05-05 02:46 | 29.99656 | -92.09352 | 614 ft | 81 kts | 161° |
| 2026-05-05 02:46 | 29.99132 | -92.09114 | 438 ft | 83 kts | 160° |
| 2026-05-05 02:46 | 29.98569 | -92.08866 | 230 ft | 88 kts | 160° |
| 2026-05-05 02:47 | 29.98003 | -92.08615 | 26 ft | 79 kts | 160° |
| 2026-05-05 02:47 | 29.97571 | -92.08421 | 19 ft | 55 kts | 159° |
| 2026-05-05 02:47 | 29.97285 | -92.08293 | 21 ft | 28 kts | 159° |
| 2026-05-05 02:47 | 29.97183 | -92.08288 | 21 ft | 14 kts | 246° |
| 2026-05-05 02:48 | 29.97145 | -92.08403 | 19 ft | 14 kts | 249° |
| 2026-05-05 02:48 | 29.97178 | -92.08490 | 19 ft | 12 kts | 334° |
| 2026-05-05 02:48 | 29.97207 | -92.08484 | 19 ft | 0 kts | 94° |